createdAt,value
2023-03-07T00:02:16.345Z,3.77
2023-03-07T00:04:47.268Z,3.47
2023-03-07T00:07:15.268Z,3.16
2023-03-07T00:09:42.641Z,3.70
2023-03-07T00:12:10.572Z,3.33
2023-03-07T00:14:37.776Z,3.35
2023-03-07T00:17:04.970Z,3.28
2023-03-07T00:19:32.413Z,4.43
2023-03-07T00:21:59.511Z,4.52
2023-03-07T00:24:26.642Z,4.35
2023-03-07T00:26:53.709Z,3.54
2023-03-07T00:29:20.894Z,4.50
2023-03-07T00:31:49.599Z,2.91
2023-03-07T00:34:16.731Z,4.38
2023-03-07T00:36:43.867Z,2.79
2023-03-07T00:39:11.350Z,2.68
2023-03-07T00:41:38.720Z,4.17
2023-03-07T00:44:05.787Z,2.59
2023-03-07T00:46:33.066Z,4.07
2023-03-07T00:49:00.208Z,2.77
2023-03-07T00:51:27.341Z,4.12
2023-03-07T00:53:54.599Z,3.93
2023-03-07T00:56:23.728Z,2.79
2023-03-07T00:58:52.134Z,2.72
2023-03-07T01:01:24.443Z,4.85
2023-03-07T01:03:54.761Z,2.57
2023-03-07T01:06:27.983Z,4.12
2023-03-07T01:08:57.850Z,3.18
2023-03-07T01:11:26.637Z,4.05
2023-03-07T01:13:59.541Z,3.24
2023-03-07T01:16:30.080Z,3.35
2023-03-07T01:19:00.081Z,2.96
2023-03-07T01:21:33.090Z,2.96
2023-03-07T01:24:02.909Z,2.84
2023-03-07T01:26:32.390Z,4.22
2023-03-07T01:29:02.710Z,3.06
2023-03-07T01:31:36.633Z,4.26
2023-03-07T01:34:04.897Z,3.02
2023-03-07T01:36:36.851Z,3.29
2023-03-07T01:39:14.755Z,4.20
2023-03-07T01:42:04.580Z,2.71
2023-03-07T01:44:32.923Z,4.13
2023-03-07T01:47:00.897Z,4.28
2023-03-07T01:49:47.968Z,3.04
2023-03-07T01:52:19.419Z,2.93
2023-03-07T01:54:58.580Z,3.36
2023-03-07T01:57:31.991Z,4.99
2023-03-07T02:00:06.171Z,3.09
2023-03-07T02:02:42.936Z,4.26
2023-03-07T02:05:24.434Z,4.30
2023-03-07T02:07:56.505Z,4.03
2023-03-07T02:10:26.644Z,3.05
2023-03-07T02:12:54.305Z,3.20
2023-03-07T02:15:21.928Z,4.50
2023-03-07T02:17:49.529Z,3.26
2023-03-07T02:20:21.801Z,3.44
2023-03-07T02:22:50.048Z,3.19
2023-03-07T02:25:50.246Z,5.33
2023-03-07T02:28:19.321Z,4.34
2023-03-07T02:31:01.246Z,4.38
2023-03-07T02:33:32.201Z,3.70
2023-03-07T02:36:11.260Z,3.20
2023-03-07T02:38:47.194Z,3.79
2023-03-07T02:41:19.718Z,3.12
2023-03-07T02:43:46.936Z,5.01
2023-03-07T02:46:14.193Z,4.14
2023-03-07T02:48:41.333Z,4.53
2023-03-07T02:51:08.679Z,2.92
2023-03-07T02:53:35.885Z,3.70
2023-03-07T02:56:03.950Z,4.16
2023-03-07T02:58:31.476Z,3.48
2023-03-07T03:00:58.413Z,4.30
2023-03-07T03:03:25.437Z,4.39
2023-03-07T03:05:52.390Z,4.00
2023-03-07T03:08:19.396Z,4.79
2023-03-07T03:10:46.349Z,4.79
2023-03-07T03:13:14.097Z,3.95
2023-03-07T03:15:42.334Z,4.11
2023-03-07T03:18:09.357Z,4.87
2023-03-07T03:20:39.716Z,3.87
2023-03-07T03:23:06.652Z,3.88
2023-03-07T03:25:34.237Z,4.70
2023-03-07T03:28:01.246Z,3.80
2023-03-07T03:30:32.526Z,3.71
2023-03-07T03:33:01.115Z,3.93
2023-03-07T03:35:29.085Z,3.57
2023-03-07T03:37:57.165Z,4.44
2023-03-07T03:40:25.177Z,3.80
2023-03-07T03:42:52.268Z,3.27
2023-03-07T03:45:20.644Z,4.36
2023-03-07T03:47:48.652Z,3.70
2023-03-07T03:50:16.535Z,3.61
2023-03-07T03:52:49.381Z,3.52
2023-03-07T03:55:16.452Z,3.19
2023-03-07T03:57:43.700Z,2.55
2023-03-07T04:00:14.471Z,4.15
2023-03-07T04:02:41.724Z,4.28
2023-03-07T04:05:13.207Z,4.37
2023-03-07T04:07:40.504Z,3.83
2023-03-07T04:10:08.174Z,3.06
2023-03-07T04:12:35.822Z,3.14
2023-03-07T04:15:05.032Z,3.30
2023-03-07T04:17:33.050Z,3.51
2023-03-07T04:20:00.687Z,3.93
2023-03-07T04:22:27.847Z,3.56
2023-03-07T04:24:54.881Z,4.19
2023-03-07T04:27:22.138Z,3.16
2023-03-07T04:29:49.210Z,4.23
2023-03-07T04:32:20.131Z,3.53
2023-03-07T04:34:48.437Z,3.83
2023-03-07T04:37:15.474Z,3.21
2023-03-07T04:39:42.629Z,2.00
2023-03-07T04:42:11.004Z,3.25
2023-03-07T04:44:38.013Z,3.14
2023-03-07T04:47:05.223Z,3.51
2023-03-07T04:49:35.398Z,3.22
2023-03-07T04:52:04.328Z,2.06
2023-03-07T04:54:31.928Z,3.84
2023-03-07T04:56:59.488Z,2.42
2023-03-07T04:59:26.505Z,3.36
2023-03-07T05:01:53.675Z,2.71
2023-03-07T05:04:20.705Z,2.06
2023-03-07T05:06:47.872Z,3.34
2023-03-07T05:09:15.652Z,3.42
2023-03-07T05:11:42.913Z,1.83
2023-03-07T05:14:10.079Z,2.79
2023-03-07T05:16:37.211Z,2.48
2023-03-07T05:19:06.107Z,2.17
2023-03-07T05:21:34.165Z,2.05
2023-03-07T05:24:01.604Z,3.22
2023-03-07T05:26:30.707Z,2.39
2023-03-07T05:28:57.721Z,2.45
2023-03-07T05:31:24.855Z,3.80
2023-03-07T05:33:52.023Z,3.35
2023-03-07T05:36:19.170Z,2.00
2023-03-07T05:38:46.267Z,3.38
2023-03-07T05:41:13.573Z,2.46
2023-03-07T05:43:42.667Z,4.03
2023-03-07T05:46:09.869Z,2.19
2023-03-07T05:48:36.820Z,2.30
2023-03-07T05:51:04.113Z,3.41
2023-03-07T05:53:31.418Z,2.38
2023-03-07T05:55:58.821Z,2.89
2023-03-07T05:58:26.194Z,2.91
2023-03-07T06:00:53.341Z,2.75
2023-03-07T06:03:20.480Z,3.53
2023-03-07T06:05:58.881Z,3.55
2023-03-07T06:08:25.972Z,3.75
2023-03-07T06:10:54.490Z,3.65
2023-03-07T06:13:24.621Z,3.22
2023-03-07T06:15:53.745Z,4.01
2023-03-07T06:18:22.791Z,4.01
2023-03-07T06:21:01.584Z,3.80
2023-03-07T06:23:33.692Z,4.67
2023-03-07T06:26:01.829Z,3.71
2023-03-07T06:28:32.724Z,3.56
2023-03-07T06:31:01.120Z,4.59
2023-03-07T06:33:28.321Z,3.51
2023-03-07T06:35:55.667Z,3.87
2023-03-07T06:38:22.663Z,3.20
2023-03-07T06:40:58.918Z,3.24
2023-03-07T06:43:26.566Z,4.48
2023-03-07T06:45:54.120Z,4.90
2023-03-07T06:48:23.344Z,4.49
2023-03-07T06:50:50.314Z,4.92
2023-03-07T06:53:17.422Z,4.09
2023-03-07T06:55:48.642Z,3.39
2023-03-07T06:58:15.813Z,4.42
2023-03-07T07:00:42.867Z,3.39
2023-03-07T07:03:14.036Z,4.31
2023-03-07T07:05:41.330Z,3.41
2023-03-07T07:08:08.445Z,3.73
2023-03-07T07:10:35.580Z,4.72
2023-03-07T07:13:05.421Z,5.00
2023-03-07T07:15:33.732Z,3.06
2023-03-07T07:18:01.228Z,3.04
2023-03-07T07:20:29.021Z,4.36
2023-03-07T07:22:56.244Z,4.58
2023-03-07T07:25:23.805Z,3.41
2023-03-07T07:27:51.399Z,4.51
2023-03-07T07:30:18.554Z,4.73
2023-03-07T07:32:45.968Z,3.40
2023-03-07T07:35:13.240Z,4.56
2023-03-07T07:37:40.577Z,3.42
2023-03-07T07:40:10.729Z,3.77
2023-03-07T07:42:38.561Z,3.85
2023-03-07T07:45:17.316Z,3.75
2023-03-07T07:47:44.752Z,5.05
2023-03-07T07:50:12.017Z,5.50
2023-03-07T07:52:39.043Z,5.22
2023-03-07T07:55:06.388Z,5.18
2023-03-07T07:57:33.613Z,4.81
2023-03-07T08:00:00.817Z,5.06
2023-03-07T08:02:29.018Z,4.85
2023-03-07T08:04:56.605Z,4.58
2023-03-07T08:07:23.650Z,4.78
2023-03-07T08:09:50.670Z,4.60
2023-03-07T08:12:17.781Z,6.48
2023-03-07T08:14:45.049Z,4.75
2023-03-07T08:17:12.178Z,4.84
2023-03-07T08:19:39.237Z,6.10
2023-03-07T08:22:06.400Z,5.29
2023-03-07T08:24:40.692Z,6.80
2023-03-07T08:27:08.356Z,6.86
2023-03-07T08:29:35.583Z,5.48
2023-03-07T08:32:02.916Z,5.11
2023-03-07T08:34:33.019Z,6.10
2023-03-07T08:37:00.121Z,6.93
2023-03-07T08:39:27.281Z,5.24
2023-03-07T08:41:55.477Z,7.10
2023-03-07T08:44:22.666Z,5.66
2023-03-07T08:46:49.748Z,5.41
2023-03-07T08:49:16.809Z,6.67
2023-03-07T08:51:43.857Z,5.55
2023-03-07T08:54:10.910Z,6.63
2023-03-07T08:56:37.982Z,6.89
2023-03-07T08:59:05.330Z,7.07
2023-03-07T09:01:32.441Z,6.05
2023-03-07T09:03:59.813Z,5.97
2023-03-07T09:06:26.883Z,6.02
2023-03-07T09:08:54.049Z,6.03
2023-03-07T09:11:22.303Z,5.74
2023-03-07T09:13:52.803Z,7.09
2023-03-07T09:16:21.277Z,6.15
2023-03-07T09:18:48.373Z,6.98
2023-03-07T09:21:15.581Z,6.84
2023-03-07T09:23:43.823Z,6.01
2023-03-07T09:26:10.997Z,7.72
2023-03-07T09:28:38.052Z,6.27
2023-03-07T09:31:10.312Z,6.41
2023-03-07T09:33:37.376Z,5.95
2023-03-07T09:36:09.518Z,7.10
2023-03-07T09:38:36.843Z,6.99
2023-03-07T09:41:06.934Z,7.84
2023-03-07T09:43:47.607Z,7.30
2023-03-07T09:46:53.903Z,6.38
2023-03-07T09:49:28.440Z,6.47
2023-03-07T09:51:59.618Z,6.34
2023-03-07T09:54:37.499Z,6.65
2023-03-07T09:57:07.295Z,6.54
2023-03-07T09:59:45.425Z,7.66
2023-03-07T10:02:43.565Z,8.17
2023-03-07T10:05:48.934Z,7.04
2023-03-07T10:08:19.868Z,6.38
2023-03-07T10:11:08.588Z,8.25
2023-03-07T10:13:35.630Z,8.30
2023-03-07T10:16:16.761Z,7.01
2023-03-07T10:19:02.625Z,8.52
2023-03-07T10:21:40.791Z,8.49
2023-03-07T10:24:37.213Z,6.98
2023-03-07T10:27:08.104Z,7.15
2023-03-07T10:29:44.920Z,8.23
2023-03-07T10:32:17.800Z,9.19
2023-03-07T10:34:45.908Z,7.83
2023-03-07T10:37:24.702Z,8.88
2023-03-07T10:39:56.612Z,8.78
2023-03-07T10:42:33.690Z,7.74
2023-03-07T10:45:01.857Z,7.54
2023-03-07T10:47:29.294Z,8.61
2023-03-07T10:50:08.430Z,7.44
2023-03-07T10:52:45.099Z,7.75
2023-03-07T10:55:33.973Z,9.49
2023-03-07T10:58:22.654Z,8.52
2023-03-07T11:01:20.001Z,8.69
2023-03-07T11:04:00.970Z,9.52
2023-03-07T11:06:34.305Z,9.54
2023-03-07T11:09:17.199Z,8.87
2023-03-07T11:11:54.045Z,7.60
2023-03-07T11:14:24.586Z,8.71
2023-03-07T11:16:59.417Z,9.00
2023-03-07T11:19:34.911Z,9.57
2023-03-07T11:22:20.180Z,8.76
2023-03-07T11:25:06.748Z,9.76
2023-03-07T11:27:45.910Z,9.87
2023-03-07T11:30:13.212Z,9.88
2023-03-07T11:32:46.112Z,9.87
2023-03-07T11:35:43.029Z,8.15
2023-03-07T11:38:36.981Z,10.03
2023-03-07T11:41:19.224Z,10.05
2023-03-07T11:44:13.787Z,9.79
2023-03-07T11:47:18.636Z,7.95
2023-03-07T11:50:23.269Z,10.01
2023-03-07T11:53:11.900Z,10.06
2023-03-07T11:55:53.046Z,8.39
2023-03-07T11:58:38.386Z,10.12
2023-03-07T12:01:16.377Z,9.82
2023-03-07T12:04:22.008Z,9.85
2023-03-07T12:06:59.210Z,8.80
2023-03-07T12:09:52.609Z,9.97
2023-03-07T12:13:06.605Z,8.40
2023-03-07T12:15:40.704Z,9.95
2023-03-07T12:18:25.955Z,10.07
2023-03-07T12:20:58.725Z,10.14
2023-03-07T12:23:47.273Z,9.53
2023-03-07T12:26:24.280Z,9.26
2023-03-07T12:29:10.239Z,9.92
2023-03-07T12:31:43.794Z,8.21
2023-03-07T12:34:10.849Z,9.83
2023-03-07T12:36:58.623Z,9.70
2023-03-07T12:39:38.398Z,9.16
2023-03-07T12:42:23.835Z,9.04
2023-03-07T12:45:02.340Z,9.77
2023-03-07T12:47:57.084Z,9.51
2023-03-07T12:50:29.058Z,9.02
2023-03-07T12:53:24.899Z,9.71
2023-03-07T12:56:15.531Z,8.89
2023-03-07T12:58:58.637Z,8.09
2023-03-07T13:01:32.173Z,9.74
2023-03-07T13:04:34.313Z,7.78
2023-03-07T13:07:26.082Z,8.40
2023-03-07T13:09:56.152Z,8.99
2023-03-07T13:12:29.877Z,9.83
2023-03-07T13:15:10.733Z,7.90
2023-03-07T13:17:38.362Z,9.86
2023-03-07T13:20:34.386Z,9.75
2023-03-07T13:23:32.691Z,8.07
2023-03-07T13:26:10.830Z,8.99
2023-03-07T13:28:39.605Z,9.58
2023-03-07T13:31:28.414Z,8.48
2023-03-07T13:33:55.655Z,7.99
2023-03-07T13:36:39.467Z,8.25
2023-03-07T13:39:36.556Z,8.09
2023-03-07T13:42:04.554Z,7.73
2023-03-07T13:44:41.145Z,7.78
2023-03-07T13:47:43.377Z,9.13
2023-03-07T13:50:35.111Z,9.25
2023-03-07T13:53:04.340Z,7.55
2023-03-07T13:55:41.333Z,7.38
2023-03-07T13:58:20.894Z,8.16
2023-03-07T14:00:55.107Z,7.56
2023-03-07T14:03:50.590Z,9.24
2023-03-07T14:06:21.780Z,7.66
2023-03-07T14:08:50.765Z,8.59
2023-03-07T14:11:28.760Z,9.14
2023-03-07T14:14:17.154Z,9.20
2023-03-07T14:17:02.996Z,9.17
2023-03-07T14:19:55.554Z,7.34
2023-03-07T14:22:49.725Z,9.18
2023-03-07T14:25:28.089Z,8.58
2023-03-07T14:28:19.409Z,7.16
2023-03-07T14:31:00.318Z,9.21
2023-03-07T14:33:36.215Z,7.20
2023-03-07T14:36:19.735Z,8.40
2023-03-07T14:38:48.560Z,8.33
2023-03-07T14:41:50.381Z,7.03
2023-03-07T14:44:17.358Z,8.95
2023-03-07T14:46:56.298Z,9.09
2023-03-07T14:49:49.128Z,7.21
2023-03-07T14:52:29.928Z,8.61
2023-03-07T14:55:02.001Z,7.29
2023-03-07T14:57:32.049Z,9.23
2023-03-07T15:00:20.527Z,9.27
2023-03-07T15:03:01.950Z,7.38
2023-03-07T15:05:37.115Z,7.43
2023-03-07T15:08:04.476Z,7.35
2023-03-07T15:10:34.439Z,9.28
2023-03-07T15:13:05.361Z,7.45
2023-03-07T15:15:47.333Z,7.55
2023-03-07T15:18:34.050Z,9.31
2023-03-07T15:21:02.775Z,7.44
2023-03-07T15:23:30.202Z,8.75
2023-03-07T15:26:11.031Z,7.84
2023-03-07T15:28:42.595Z,7.15
2023-03-07T15:31:10.622Z,7.83
2023-03-07T15:33:37.752Z,8.32
2023-03-07T15:36:08.006Z,8.84
2023-03-07T15:38:35.520Z,6.84
2023-03-07T15:41:02.698Z,6.67
2023-03-07T15:43:37.306Z,6.81
2023-03-07T15:46:16.342Z,6.98
2023-03-07T15:48:49.166Z,7.79
2023-03-07T15:51:19.710Z,7.43
2023-03-07T15:53:56.943Z,7.67
2023-03-07T15:56:30.741Z,8.35
2023-03-07T15:59:02.586Z,7.66
2023-03-07T16:01:29.773Z,6.63
2023-03-07T16:03:59.655Z,6.83
2023-03-07T16:06:47.144Z,7.53
2023-03-07T16:09:19.643Z,7.38
2023-03-07T16:11:47.431Z,7.35
2023-03-07T16:14:26.399Z,6.14
2023-03-07T16:16:59.623Z,5.93
2023-03-07T16:19:27.005Z,5.99
2023-03-07T16:21:54.476Z,6.12
2023-03-07T16:24:21.613Z,7.98
2023-03-07T16:26:49.076Z,7.76
2023-03-07T16:29:19.856Z,7.12
2023-03-07T16:31:47.132Z,7.69
2023-03-07T16:34:20.110Z,7.50
2023-03-07T16:36:48.272Z,5.38
2023-03-07T16:39:16.132Z,6.83
2023-03-07T16:41:46.222Z,6.80
2023-03-07T16:44:21.506Z,5.52
2023-03-07T16:47:03.670Z,5.56
2023-03-07T16:49:30.751Z,6.79
2023-03-07T16:52:05.820Z,7.32
2023-03-07T16:54:34.298Z,6.59
2023-03-07T16:57:02.847Z,7.07
2023-03-07T16:59:35.740Z,6.40
2023-03-07T17:02:13.968Z,6.20
2023-03-07T17:04:43.212Z,5.06
2023-03-07T17:07:18.597Z,5.06
2023-03-07T17:09:46.064Z,7.04
2023-03-07T17:12:13.527Z,4.86
2023-03-07T17:14:41.127Z,6.09
2023-03-07T17:17:11.504Z,6.20
2023-03-07T17:19:38.650Z,5.05
2023-03-07T17:22:05.852Z,6.33
2023-03-07T17:24:32.971Z,5.38
2023-03-07T17:27:03.697Z,5.64
2023-03-07T17:29:56.135Z,4.89
2023-03-07T17:32:23.554Z,6.20
2023-03-07T17:34:50.634Z,4.76
2023-03-07T17:37:18.150Z,4.87
2023-03-07T17:39:45.903Z,6.27
2023-03-07T17:42:13.312Z,6.13
2023-03-07T17:44:40.520Z,5.06
2023-03-07T17:47:07.716Z,5.08
2023-03-07T17:49:37.478Z,4.90
2023-03-07T17:52:08.312Z,5.00
2023-03-07T17:54:35.681Z,6.32
2023-03-07T17:57:03.224Z,5.74
2023-03-07T17:59:32.805Z,5.40
2023-03-07T18:02:00.231Z,6.38
2023-03-07T18:04:31.248Z,6.46
2023-03-07T18:06:59.890Z,5.29
2023-03-07T18:09:26.989Z,5.74
2023-03-07T18:11:54.391Z,6.51
2023-03-07T18:14:21.739Z,5.02
2023-03-07T18:16:49.324Z,5.17
2023-03-07T18:19:25.611Z,7.11
2023-03-07T18:21:54.355Z,5.33
2023-03-07T18:24:26.385Z,6.48
2023-03-07T18:26:55.113Z,5.10
2023-03-07T18:29:23.477Z,5.14
2023-03-07T18:31:59.941Z,5.23
2023-03-07T18:34:27.519Z,5.32
2023-03-07T18:36:54.866Z,5.25
2023-03-07T18:39:23.761Z,6.56
2023-03-07T18:41:51.097Z,5.28
2023-03-07T18:44:18.792Z,6.68
2023-03-07T18:46:46.457Z,6.39
2023-03-07T18:49:13.706Z,6.57
2023-03-07T18:51:42.939Z,5.33
2023-03-07T18:54:10.236Z,5.14
2023-03-07T18:56:37.982Z,5.30
2023-03-07T18:59:05.092Z,5.25
2023-03-07T19:01:37.731Z,5.05
2023-03-07T19:04:05.759Z,6.44
2023-03-07T19:06:35.904Z,6.19
2023-03-07T19:09:04.011Z,5.01
2023-03-07T19:11:32.244Z,5.24
2023-03-07T19:13:59.916Z,6.40
2023-03-07T19:16:28.647Z,6.84
2023-03-07T19:18:56.559Z,5.26
2023-03-07T19:21:26.590Z,6.12
2023-03-07T19:23:55.178Z,5.55
2023-03-07T19:26:23.353Z,5.00
2023-03-07T19:28:53.433Z,6.30
2023-03-07T19:31:26.893Z,6.25
2023-03-07T19:33:54.621Z,6.21
2023-03-07T19:36:27.312Z,4.91
2023-03-07T19:38:59.263Z,4.66
2023-03-07T19:41:28.647Z,5.08
2023-03-07T19:43:57.367Z,5.07
2023-03-07T19:46:25.078Z,4.86
2023-03-07T19:48:52.247Z,5.66
2023-03-07T19:51:24.978Z,5.86
2023-03-07T19:53:55.298Z,4.95
2023-03-07T19:56:28.523Z,6.00
2023-03-07T19:58:56.583Z,4.66
2023-03-07T20:01:24.416Z,4.55
2023-03-07T20:03:51.705Z,4.61
2023-03-07T20:06:22.410Z,4.86
2023-03-07T20:08:51.524Z,6.01
2023-03-07T20:11:21.452Z,5.92
2023-03-07T20:13:50.491Z,4.88
2023-03-07T20:16:20.173Z,4.58
2023-03-07T20:18:52.633Z,5.08
2023-03-07T20:21:22.066Z,4.65
2023-03-07T20:23:49.188Z,4.61
2023-03-07T20:26:23.142Z,5.83
2023-03-07T20:28:52.059Z,5.36
2023-03-07T20:31:20.222Z,4.60
2023-03-07T20:33:47.888Z,4.33
2023-03-07T20:36:21.138Z,4.46
2023-03-07T20:38:50.271Z,4.35
2023-03-07T20:41:21.077Z,4.32
2023-03-07T20:43:49.559Z,5.72
2023-03-07T20:46:18.079Z,5.07
2023-03-07T20:48:45.571Z,5.59
2023-03-07T20:51:21.613Z,3.79
2023-03-07T20:53:57.347Z,5.44
2023-03-07T20:56:26.251Z,4.07
2023-03-07T20:58:56.037Z,5.24
2023-03-07T21:01:25.079Z,3.95
2023-03-07T21:03:53.900Z,5.22
2023-03-07T21:06:21.485Z,4.75
2023-03-07T21:08:48.639Z,5.56
2023-03-07T21:11:18.674Z,4.95
2023-03-07T21:13:48.244Z,5.08
2023-03-07T21:16:20.564Z,3.41
2023-03-07T21:18:48.748Z,4.75
2023-03-07T21:21:18.173Z,3.52
2023-03-07T21:23:45.802Z,3.42
2023-03-07T21:26:15.737Z,3.61
2023-03-07T21:28:42.985Z,4.67
2023-03-07T21:31:13.085Z,5.15
2023-03-07T21:33:42.116Z,3.35
2023-03-07T21:36:11.173Z,4.66
2023-03-07T21:38:39.981Z,4.58
2023-03-07T21:41:07.984Z,4.47
2023-03-07T21:43:35.686Z,3.57
2023-03-07T21:46:06.830Z,3.05
2023-03-07T21:48:34.347Z,4.59
2023-03-07T21:51:01.926Z,4.68
2023-03-07T21:53:29.965Z,4.57
2023-03-07T21:56:01.659Z,3.14
2023-03-07T21:58:31.598Z,4.40
2023-03-07T22:00:59.121Z,3.51
2023-03-07T22:03:28.733Z,5.20
2023-03-07T22:05:57.391Z,3.12
2023-03-07T22:08:24.693Z,4.43
2023-03-07T22:11:00.517Z,3.14
2023-03-07T22:13:28.541Z,4.37
2023-03-07T22:15:57.616Z,4.40
2023-03-07T22:18:25.481Z,3.04
2023-03-07T22:20:53.084Z,4.35
2023-03-07T22:23:20.105Z,4.34
2023-03-07T22:25:47.217Z,3.04
2023-03-07T22:28:19.369Z,2.98
2023-03-07T22:30:47.494Z,3.56
2023-03-07T22:33:14.698Z,4.26
2023-03-07T22:35:42.076Z,4.26
2023-03-07T22:38:09.308Z,3.03
2023-03-07T22:40:39.483Z,4.27
2023-03-07T22:43:06.851Z,4.41
2023-03-07T22:45:34.633Z,2.91
2023-03-07T22:48:01.975Z,2.81
2023-03-07T22:50:29.079Z,4.73
2023-03-07T22:52:56.226Z,3.13
2023-03-07T22:55:23.311Z,2.65
2023-03-07T22:57:50.639Z,2.78
2023-03-07T23:00:18.213Z,4.08
2023-03-07T23:02:45.426Z,2.45
2023-03-07T23:05:12.488Z,4.60
2023-03-07T23:07:47.737Z,2.63
2023-03-07T23:10:15.986Z,4.22
2023-03-07T23:12:43.118Z,3.94
2023-03-07T23:15:10.731Z,4.05
2023-03-07T23:17:37.908Z,2.77
2023-03-07T23:20:05.532Z,4.60
2023-03-07T23:22:32.656Z,3.89
2023-03-07T23:24:59.738Z,3.80
2023-03-07T23:27:26.925Z,2.48
2023-03-07T23:29:53.952Z,3.18
2023-03-07T23:32:21.154Z,4.54
2023-03-07T23:34:48.358Z,2.58
2023-03-07T23:37:15.617Z,3.53
2023-03-07T23:39:43.003Z,2.30
2023-03-07T23:42:12.771Z,3.68
2023-03-07T23:44:40.355Z,2.20
2023-03-07T23:47:07.620Z,3.67
2023-03-07T23:49:34.767Z,3.55
2023-03-07T23:52:01.799Z,3.58
2023-03-07T23:54:29.491Z,2.24
2023-03-07T23:56:56.664Z,4.36
2023-03-07T23:59:23.955Z,2.17
